sensor_id;sensor_type;location;lat;lon;timestamp;pressure;altitude;pressure_sealevel;temperature;humidity
48563;BME280;34981;49.104;11.396;2023-05-14T00:01:05;100221.75;;;8.52;100.00
48563;BME280;34981;49.104;11.396;2023-05-14T00:03:33;100227.81;;;8.54;100.00
48563;BME280;34981;49.104;11.396;2023-05-14T00:06:02;100216.78;;;8.40;100.00
48563;BME280;34981;49.104;11.396;2023-05-14T00:08:30;100215.22;;;8.37;100.00
48563;BME280;34981;49.104;11.396;2023-05-14T00:10:57;100221.13;;;8.41;100.00
48563;BME280;34981;49.104;11.396;2023-05-14T00:13:24;100230.09;;;8.49;100.00
48563;BME280;34981;49.104;11.396;2023-05-14T00:15:51;100212.22;;;8.40;100.00
48563;BME280;34981;49.104;11.396;2023-05-14T00:18:19;100215.59;;;8.42;100.00
48563;BME280;34981;49.104;11.396;2023-05-14T00:20:46;100213.78;;;8.43;100.00
48563;BME280;34981;49.104;11.396;2023-05-14T00:23:13;100216.78;;;8.40;100.00
48563;BME280;34981;49.104;11.396;2023-05-14T00:25:40;100206.88;;;8.40;100.00
48563;BME280;34981;49.104;11.396;2023-05-14T00:28:07;100216.78;;;8.40;100.00
48563;BME280;34981;49.104;11.396;2023-05-14T00:30:34;100223.78;;;8.41;100.00
48563;BME280;34981;49.104;11.396;2023-05-14T00:33:01;100193.91;;;8.36;100.00
48563;BME280;34981;49.104;11.396;2023-05-14T00:35:28;100200.84;;;8.38;100.00
48563;BME280;34981;49.104;11.396;2023-05-14T00:37:56;100214.16;;;8.48;100.00
48563;BME280;34981;49.104;11.396;2023-05-14T00:40:24;100198.38;;;8.45;100.00
48563;BME280;34981;49.104;11.396;2023-05-14T00:42:52;100200.22;;;8.44;100.00
48563;BME280;34981;49.104;11.396;2023-05-14T00:45:19;100205.44;;;8.46;100.00
48563;BME280;34981;49.104;11.396;2023-05-14T00:47:47;100205.13;;;8.49;100.00
48563;BME280;34981;49.104;11.396;2023-05-14T00:50:15;100202.59;;;8.47;100.00
48563;BME280;34981;49.104;11.396;2023-05-14T00:52:43;100197.81;;;8.41;100.00
48563;BME280;34981;49.104;11.396;2023-05-14T00:55:10;100205.28;;;8.47;100.00
48563;BME280;34981;49.104;11.396;2023-05-14T00:57:42;100206.28;;;8.46;100.00
48563;BME280;34981;49.104;11.396;2023-05-14T01:00:09;100211.31;;;8.49;100.00
48563;BME280;34981;49.104;11.396;2023-05-14T01:02:37;100202.06;;;8.44;100.00
48563;BME280;34981;49.104;11.396;2023-05-14T01:05:04;100209.34;;;8.51;100.00
48563;BME280;34981;49.104;11.396;2023-05-14T01:07:34;100212.72;;;8.53;100.00
48563;BME280;34981;49.104;11.396;2023-05-14T01:10:10;100203.41;;;8.48;100.00
48563;BME280;34981;49.104;11.396;2023-05-14T01:15:10;100201.16;;;8.53;100.00
48563;BME280;34981;49.104;11.396;2023-05-14T01:17:40;100192.56;;;8.49;100.00
48563;BME280;34981;49.104;11.396;2023-05-14T01:20:08;100191.88;;;8.47;100.00
48563;BME280;34981;49.104;11.396;2023-05-14T01:22:36;100200.91;;;8.46;100.00
48563;BME280;34981;49.104;11.396;2023-05-14T01:25:04;100206.66;;;8.51;100.00
48563;BME280;34981;49.104;11.396;2023-05-14T01:30:13;100189.25;;;8.55;100.00
48563;BME280;34981;49.104;11.396;2023-05-14T01:32:43;100190.56;;;8.51;100.00
48563;BME280;34981;49.104;11.396;2023-05-14T01:35:12;100190.56;;;8.51;100.00
48563;BME280;34981;49.104;11.396;2023-05-14T01:37:40;100189.19;;;8.47;100.00
48563;BME280;34981;49.104;11.396;2023-05-14T01:40:09;100185.13;;;8.43;100.00
48563;BME280;34981;49.104;11.396;2023-05-14T01:42:37;100171.47;;;8.37;100.00
48563;BME280;34981;49.104;11.396;2023-05-14T01:45:04;100177.84;;;8.36;100.00
48563;BME280;34981;49.104;11.396;2023-05-14T01:47:31;100180.66;;;8.34;100.00
48563;BME280;34981;49.104;11.396;2023-05-14T01:49:58;100176.28;;;8.33;100.00
48563;BME280;34981;49.104;11.396;2023-05-14T01:52:25;100172.22;;;8.29;100.00
48563;BME280;34981;49.104;11.396;2023-05-14T01:54:53;100168.59;;;8.20;100.00
48563;BME280;34981;49.104;11.396;2023-05-14T01:57:20;100182.81;;;8.31;100.00
48563;BME280;34981;49.104;11.396;2023-05-14T01:59:47;100175.47;;;8.33;100.00
48563;BME280;34981;49.104;11.396;2023-05-14T02:02:14;100164.47;;;8.26;100.00
48563;BME280;34981;49.104;11.396;2023-05-14T02:04:41;100162.09;;;8.23;100.00
48563;BME280;34981;49.104;11.396;2023-05-14T02:07:08;100157.03;;;8.20;100.00
48563;BME280;34981;49.104;11.396;2023-05-14T02:09:35;100151.56;;;8.12;100.00
48563;BME280;34981;49.104;11.396;2023-05-14T02:12:02;100151.75;;;8.10;100.00
48563;BME280;34981;49.104;11.396;2023-05-14T02:14:29;100148.91;;;8.12;100.00
48563;BME280;34981;49.104;11.396;2023-05-14T02:16:56;100148.66;;;8.05;100.00
48563;BME280;34981;49.104;11.396;2023-05-14T02:19:24;100162.28;;;8.12;100.00
48563;BME280;34981;49.104;11.396;2023-05-14T02:21:51;100150.34;;;8.06;100.00
48563;BME280;34981;49.104;11.396;2023-05-14T02:24:18;100148.19;;;7.92;100.00
48563;BME280;34981;49.104;11.396;2023-05-14T02:26:45;100152.94;;;7.98;100.00
48563;BME280;34981;49.104;11.396;2023-05-14T02:29:12;100148.44;;;7.99;100.00
48563;BME280;34981;49.104;11.396;2023-05-14T02:31:39;100154.03;;;8.05;100.00
48563;BME280;34981;49.104;11.396;2023-05-14T02:34:06;100152.34;;;8.04;100.00
48563;BME280;34981;49.104;11.396;2023-05-14T02:36:33;100156.03;;;8.03;100.00
48563;BME280;34981;49.104;11.396;2023-05-14T02:39:01;100151.66;;;8.02;100.00
48563;BME280;34981;49.104;11.396;2023-05-14T02:41:28;100159.09;;;8.08;100.00
48563;BME280;34981;49.104;11.396;2023-05-14T02:43:55;100155.72;;;8.06;100.00
48563;BME280;34981;49.104;11.396;2023-05-14T02:46:22;100137.19;;;7.95;100.00
48563;BME280;34981;49.104;11.396;2023-05-14T02:48:49;100132.97;;;7.93;100.00
48563;BME280;34981;49.104;11.396;2023-05-14T02:51:18;100139.00;;;7.95;100.00
48563;BME280;34981;49.104;11.396;2023-05-14T02:53:45;100132.81;;;7.94;100.00
48563;BME280;34981;49.104;11.396;2023-05-14T02:56:12;100127.88;;;7.90;100.00
48563;BME280;34981;49.104;11.396;2023-05-14T02:58:39;100127.81;;;7.81;100.00
48563;BME280;34981;49.104;11.396;2023-05-14T03:01:06;100136.94;;;7.89;100.00
48563;BME280;34981;49.104;11.396;2023-05-14T03:03:34;100127.34;;;7.86;100.00
48563;BME280;34981;49.104;11.396;2023-05-14T03:06:02;100121.53;;;7.73;100.00
48563;BME280;34981;49.104;11.396;2023-05-14T03:08:29;100129.00;;;7.69;100.00
48563;BME280;34981;49.104;11.396;2023-05-14T03:10:56;100131.78;;;7.77;100.00
48563;BME280;34981;49.104;11.396;2023-05-14T03:13:24;100142.19;;;7.80;100.00
48563;BME280;34981;49.104;11.396;2023-05-14T03:15:51;100141.22;;;7.81;100.00
48563;BME280;34981;49.104;11.396;2023-05-14T03:18:21;100139.34;;;7.82;100.00
48563;BME280;34981;49.104;11.396;2023-05-14T03:20:48;100141.50;;;7.78;100.00
48563;BME280;34981;49.104;11.396;2023-05-14T03:23:15;100151.22;;;7.79;100.00
48563;BME280;34981;49.104;11.396;2023-05-14T03:25:42;100137.88;;;7.70;100.00
48563;BME280;34981;49.104;11.396;2023-05-14T03:28:09;100132.00;;;7.66;100.00
48563;BME280;34981;49.104;11.396;2023-05-14T03:30:36;100138.03;;;7.68;100.00
48563;BME280;34981;49.104;11.396;2023-05-14T03:33:03;100143.94;;;7.72;100.00
48563;BME280;34981;49.104;11.396;2023-05-14T03:35:31;100143.47;;;7.76;100.00
48563;BME280;34981;49.104;11.396;2023-05-14T03:37:58;100147.00;;;7.77;100.00
48563;BME280;34981;49.104;11.396;2023-05-14T03:40:25;100147.16;;;7.75;100.00
48563;BME280;34981;49.104;11.396;2023-05-14T03:42:53;100145.31;;;7.76;100.00
48563;BME280;34981;49.104;11.396;2023-05-14T03:45:20;100135.91;;;7.72;100.00
48563;BME280;34981;49.104;11.396;2023-05-14T03:47:47;100140.09;;;7.74;100.00
48563;BME280;34981;49.104;11.396;2023-05-14T03:50:14;100148.84;;;7.76;100.00
48563;BME280;34981;49.104;11.396;2023-05-14T03:52:41;100146.84;;;7.78;100.00
48563;BME280;34981;49.104;11.396;2023-05-14T03:55:09;100134.75;;;7.74;100.00
48563;BME280;34981;49.104;11.396;2023-05-14T03:57:36;100136.44;;;7.75;100.00
48563;BME280;34981;49.104;11.396;2023-05-14T04:00:03;100140.19;;;7.82;100.00
48563;BME280;34981;49.104;11.396;2023-05-14T04:02:42;100128.63;;;7.82;100.00
48563;BME280;34981;49.104;11.396;2023-05-14T04:05:09;100132.84;;;7.85;100.00
48563;BME280;34981;49.104;11.396;2023-05-14T04:07:37;100142.44;;;7.87;100.00
48563;BME280;34981;49.104;11.396;2023-05-14T04:10:04;100148.47;;;7.89;100.00
48563;BME280;34981;49.104;11.396;2023-05-14T04:12:33;100156.59;;;7.97;100.00
48563;BME280;34981;49.104;11.396;2023-05-14T04:15:01;100173.34;;;8.09;100.00
48563;BME280;34981;49.104;11.396;2023-05-14T04:17:28;100176.53;;;8.12;100.00
48563;BME280;34981;49.104;11.396;2023-05-14T04:19:56;100184.53;;;8.22;100.00
48563;BME280;34981;49.104;11.396;2023-05-14T04:22:23;100179.69;;;8.26;100.00
48563;BME280;34981;49.104;11.396;2023-05-14T04:24:50;100186.88;;;8.35;100.00
48563;BME280;34981;49.104;11.396;2023-05-14T04:27:20;100194.16;;;8.42;100.00
48563;BME280;34981;49.104;11.396;2023-05-14T04:29:48;100200.75;;;8.48;100.00
48563;BME280;34981;49.104;11.396;2023-05-14T04:32:16;100218.97;;;8.62;100.00
48563;BME280;34981;49.104;11.396;2023-05-14T04:34:43;100217.69;;;8.66;100.00
48563;BME280;34981;49.104;11.396;2023-05-14T04:37:10;100226.06;;;8.81;100.00
48563;BME280;34981;49.104;11.396;2023-05-14T04:39:38;100238.56;;;8.90;100.00
48563;BME280;34981;49.104;11.396;2023-05-14T04:42:05;100244.38;;;9.03;100.00
48563;BME280;34981;49.104;11.396;2023-05-14T04:44:33;100281.19;;;9.36;100.00
48563;BME280;34981;49.104;11.396;2023-05-14T04:47:00;100280.75;;;9.67;100.00
48563;BME280;34981;49.104;11.396;2023-05-14T04:49:28;100349.19;;;10.58;100.00
48563;BME280;34981;49.104;11.396;2023-05-14T04:51:55;100416.91;;;11.70;100.00
48563;BME280;34981;49.104;11.396;2023-05-14T04:54:22;100426.78;;;12.51;100.00
48563;BME280;34981;49.104;11.396;2023-05-14T04:56:49;100380.16;;;12.73;100.00
48563;BME280;34981;49.104;11.396;2023-05-14T04:59:16;100360.69;;;13.16;100.00
48563;BME280;34981;49.104;11.396;2023-05-14T05:01:43;100259.41;;;12.59;100.00
48563;BME280;34981;49.104;11.396;2023-05-14T05:04:11;100216.84;;;12.38;100.00
48563;BME280;34981;49.104;11.396;2023-05-14T05:06:39;100169.00;;;11.93;100.00
48563;BME280;34981;49.104;11.396;2023-05-14T05:09:06;100110.78;;;11.20;100.00
48563;BME280;34981;49.104;11.396;2023-05-14T05:11:34;100076.19;;;10.61;100.00
48563;BME280;34981;49.104;11.396;2023-05-14T05:14:01;100079.41;;;10.48;100.00
48563;BME280;34981;49.104;11.396;2023-05-14T05:16:28;100101.63;;;10.58;100.00
48563;BME280;34981;49.104;11.396;2023-05-14T05:18:56;100118.09;;;10.63;100.00
48563;BME280;34981;49.104;11.396;2023-05-14T05:21:23;100131.22;;;10.66;100.00
48563;BME280;34981;49.104;11.396;2023-05-14T05:23:50;100132.03;;;10.67;100.00
48563;BME280;34981;49.104;11.396;2023-05-14T05:26:17;100119.44;;;10.59;100.00
48563;BME280;34981;49.104;11.396;2023-05-14T05:28:44;100135.94;;;10.72;100.00
48563;BME280;34981;49.104;11.396;2023-05-14T05:31:11;100137.25;;;10.84;100.00
48563;BME280;34981;49.104;11.396;2023-05-14T05:33:38;100121.28;;;10.83;100.00
48563;BME280;34981;49.104;11.396;2023-05-14T05:36:05;100136.41;;;11.00;100.00
48563;BME280;34981;49.104;11.396;2023-05-14T05:38:32;100107.50;;;10.78;100.00
48563;BME280;34981;49.104;11.396;2023-05-14T05:40:59;100140.59;;;11.11;100.00
48563;BME280;34981;49.104;11.396;2023-05-14T05:43:27;100189.00;;;11.59;100.00
48563;BME280;34981;49.104;11.396;2023-05-14T05:45:54;100148.91;;;11.56;100.00
48563;BME280;34981;49.104;11.396;2023-05-14T05:48:21;100112.63;;;11.28;100.00
48563;BME280;34981;49.104;11.396;2023-05-14T05:50:48;100137.28;;;11.56;100.00
48563;BME280;34981;49.104;11.396;2023-05-14T05:53:16;100122.66;;;11.50;100.00
48563;BME280;34981;49.104;11.396;2023-05-14T05:55:43;100071.25;;;11.13;100.00
48563;BME280;34981;49.104;11.396;2023-05-14T05:58:10;100035.50;;;10.72;100.00
48563;BME280;34981;49.104;11.396;2023-05-14T06:00:38;100045.25;;;10.73;100.00
48563;BME280;34981;49.104;11.396;2023-05-14T06:03:05;100067.75;;;10.96;100.00
48563;BME280;34981;49.104;11.396;2023-05-14T06:05:32;100037.34;;;10.71;100.00
48563;BME280;34981;49.104;11.396;2023-05-14T06:07:59;100039.72;;;10.66;100.00
48563;BME280;34981;49.104;11.396;2023-05-14T06:10:26;100036.84;;;10.68;100.00
48563;BME280;34981;49.104;11.396;2023-05-14T06:12:53;100015.50;;;10.66;100.00
48563;BME280;34981;49.104;11.396;2023-05-14T06:15:21;100008.63;;;10.47;100.00
48563;BME280;34981;49.104;11.396;2023-05-14T06:17:48;99992.16;;;10.34;100.00
48563;BME280;34981;49.104;11.396;2023-05-14T06:20:15;100030.78;;;10.74;100.00
48563;BME280;34981;49.104;11.396;2023-05-14T06:22:42;99986.94;;;10.41;100.00
48563;BME280;34981;49.104;11.396;2023-05-14T06:25:10;99999.53;;;10.48;100.00
48563;BME280;34981;49.104;11.396;2023-05-14T06:27:37;99979.38;;;10.44;100.00
48563;BME280;34981;49.104;11.396;2023-05-14T06:30:04;99985.09;;;10.49;100.00
48563;BME280;34981;49.104;11.396;2023-05-14T06:32:32;99986.41;;;10.53;100.00
48563;BME280;34981;49.104;11.396;2023-05-14T06:35:00;99983.56;;;10.55;100.00
48563;BME280;34981;49.104;11.396;2023-05-14T06:37:27;99980.53;;;10.50;100.00
48563;BME280;34981;49.104;11.396;2023-05-14T06:39:54;99992.63;;;10.54;100.00
48563;BME280;34981;49.104;11.396;2023-05-14T06:42:23;100000.16;;;10.67;100.00
48563;BME280;34981;49.104;11.396;2023-05-14T06:44:50;100012.44;;;10.77;100.00
48563;BME280;34981;49.104;11.396;2023-05-14T06:47:17;100030.88;;;10.97;100.00
48563;BME280;34981;49.104;11.396;2023-05-14T06:49:44;100030.88;;;10.97;100.00
48563;BME280;34981;49.104;11.396;2023-05-14T06:52:12;100034.06;;;11.08;100.00
48563;BME280;34981;49.104;11.396;2023-05-14T06:54:39;100035.88;;;11.24;100.00
48563;BME280;34981;49.104;11.396;2023-05-14T06:57:06;100033.03;;;11.17;100.00
48563;BME280;34981;49.104;11.396;2023-05-14T06:59:33;100025.31;;;11.06;100.00
48563;BME280;34981;49.104;11.396;2023-05-14T07:02:00;100065.09;;;11.43;100.00
48563;BME280;34981;49.104;11.396;2023-05-14T07:04:28;100065.72;;;11.53;100.00
48563;BME280;34981;49.104;11.396;2023-05-14T07:06:55;100060.34;;;11.53;100.00
48563;BME280;34981;49.104;11.396;2023-05-14T07:09:22;100057.28;;;11.56;100.00
48563;BME280;34981;49.104;11.396;2023-05-14T07:11:49;100039.28;;;11.49;100.00
48563;BME280;34981;49.104;11.396;2023-05-14T07:14:16;100035.75;;;11.48;100.00
48563;BME280;34981;49.104;11.396;2023-05-14T07:16:43;99997.16;;;11.25;100.00
48563;BME280;34981;49.104;11.396;2023-05-14T07:19:11;100011.19;;;11.43;100.00
48563;BME280;34981;49.104;11.396;2023-05-14T07:21:38;100026.28;;;11.60;100.00
48563;BME280;34981;49.104;11.396;2023-05-14T07:24:05;100027.88;;;11.69;100.00
48563;BME280;34981;49.104;11.396;2023-05-14T07:26:35;99997.31;;;11.54;100.00
48563;BME280;34981;49.104;11.396;2023-05-14T07:29:02;100015.75;;;11.74;100.00
48563;BME280;34981;49.104;11.396;2023-05-14T07:31:29;99991.13;;;11.77;100.00
48563;BME280;34981;49.104;11.396;2023-05-14T07:33:56;99974.34;;;11.75;100.00
48563;BME280;34981;49.104;11.396;2023-05-14T07:36:23;99961.16;;;11.71;100.00
48563;BME280;34981;49.104;11.396;2023-05-14T07:38:50;99963.59;;;11.89;100.00
48563;BME280;34981;49.104;11.396;2023-05-14T07:41:18;99939.69;;;11.86;100.00
48563;BME280;34981;49.104;11.396;2023-05-14T07:43:45;99936.09;;;11.94;100.00
48563;BME280;34981;49.104;11.396;2023-05-14T07:46:12;99963.22;;;12.15;100.00
48563;BME280;34981;49.104;11.396;2023-05-14T07:48:39;99936.88;;;12.02;100.00
48563;BME280;34981;49.104;11.396;2023-05-14T07:51:06;99936.25;;;12.15;100.00
48563;BME280;34981;49.104;11.396;2023-05-14T07:53:33;99944.84;;;12.33;100.00
48563;BME280;34981;49.104;11.396;2023-05-14T07:56:00;99964.81;;;12.62;100.00
48563;BME280;34981;49.104;11.396;2023-05-14T07:58:27;99963.88;;;12.84;100.00
48563;BME280;34981;49.104;11.396;2023-05-14T08:00:54;99943.56;;;12.88;100.00
48563;BME280;34981;49.104;11.396;2023-05-14T08:03:22;99927.84;;;13.06;100.00
48563;BME280;34981;49.104;11.396;2023-05-14T08:05:49;99944.22;;;13.34;100.00
48563;BME280;34981;49.104;11.396;2023-05-14T08:08:18;99930.41;;;13.44;100.00
48563;BME280;34981;49.104;11.396;2023-05-14T08:10:45;99904.00;;;13.46;100.00
48563;BME280;34981;49.104;11.396;2023-05-14T08:13:12;99876.72;;;13.41;100.00
48563;BME280;34981;49.104;11.396;2023-05-14T08:15:39;99804.16;;;12.87;100.00
48563;BME280;34981;49.104;11.396;2023-05-14T08:18:06;99796.47;;;12.84;100.00
48563;BME280;34981;49.104;11.396;2023-05-14T08:20:33;99824.47;;;13.34;100.00
48563;BME280;34981;49.104;11.396;2023-05-14T08:23:00;99795.03;;;13.45;100.00
48563;BME280;34981;49.104;11.396;2023-05-14T08:25:27;99739.81;;;13.12;100.00
48563;BME280;34981;49.104;11.396;2023-05-14T08:27:54;99709.34;;;12.97;100.00
48563;BME280;34981;49.104;11.396;2023-05-14T08:30:22;99736.19;;;13.19;100.00
48563;BME280;34981;49.104;11.396;2023-05-14T08:32:49;99707.41;;;13.12;100.00
48563;BME280;34981;49.104;11.396;2023-05-14T08:35:16;99733.41;;;13.34;100.00
48563;BME280;34981;49.104;11.396;2023-05-14T08:37:44;99705.66;;;13.47;100.00
48563;BME280;34981;49.104;11.396;2023-05-14T08:40:11;99685.97;;;13.59;100.00
48563;BME280;34981;49.104;11.396;2023-05-14T08:42:38;99678.16;;;13.71;100.00
48563;BME280;34981;49.104;11.396;2023-05-14T08:45:13;99600.75;;;13.29;100.00
48563;BME280;34981;49.104;11.396;2023-05-14T08:47:43;99541.44;;;13.14;100.00
48563;BME280;34981;49.104;11.396;2023-05-14T08:50:13;99503.44;;;13.22;100.00
48563;BME280;34981;49.104;11.396;2023-05-14T08:52:40;99494.31;;;13.30;100.00
48563;BME280;34981;49.104;11.396;2023-05-14T08:55:07;99493.78;;;13.48;100.00
48563;BME280;34981;49.104;11.396;2023-05-14T08:57:35;99474.94;;;13.68;100.00
48563;BME280;34981;49.104;11.396;2023-05-14T09:00:03;99485.84;;;13.94;100.00
48563;BME280;34981;49.104;11.396;2023-05-14T09:02:40;99500.69;;;14.57;100.00
48563;BME280;34981;49.104;11.396;2023-05-14T09:05:08;99423.03;;;14.38;100.00
48563;BME280;34981;49.104;11.396;2023-05-14T09:07:35;99362.88;;;14.10;100.00
48563;BME280;34981;49.104;11.396;2023-05-14T09:10:02;99338.94;;;14.07;100.00
48563;BME280;34981;49.104;11.396;2023-05-14T09:12:30;99362.59;;;14.57;100.00
48563;BME280;34981;49.104;11.396;2023-05-14T09:14:57;99345.72;;;15.13;100.00
48563;BME280;34981;49.104;11.396;2023-05-14T09:17:24;99360.38;;;15.43;100.00
48563;BME280;34981;49.104;11.396;2023-05-14T09:19:52;99377.94;;;16.04;100.00
48563;BME280;34981;49.104;11.396;2023-05-14T09:22:19;99280.31;;;15.97;100.00
48563;BME280;34981;49.104;11.396;2023-05-14T09:25:00;99158.56;;;16.01;100.00
48563;BME280;34981;49.104;11.396;2023-05-14T09:27:28;99042.28;;;15.86;100.00
48563;BME280;34981;49.104;11.396;2023-05-14T09:30:10;99047.56;;;15.81;100.00
48563;BME280;34981;49.104;11.396;2023-05-14T09:32:38;98997.81;;;15.87;100.00
48563;BME280;34981;49.104;11.396;2023-05-14T09:35:13;98973.22;;;16.00;100.00
48563;BME280;34981;49.104;11.396;2023-05-14T09:37:44;98938.31;;;16.15;100.00
48563;BME280;34981;49.104;11.396;2023-05-14T09:40:12;98850.03;;;16.01;100.00
48563;BME280;34981;49.104;11.396;2023-05-14T09:42:39;98821.06;;;16.13;100.00
48563;BME280;34981;49.104;11.396;2023-05-14T09:45:07;98658.63;;;15.58;100.00
48563;BME280;34981;49.104;11.396;2023-05-14T09:47:35;98642.38;;;15.70;100.00
48563;BME280;34981;49.104;11.396;2023-05-14T09:50:03;98615.00;;;15.60;100.00
48563;BME280;34981;49.104;11.396;2023-05-14T09:52:31;98661.56;;;15.80;100.00
48563;BME280;34981;49.104;11.396;2023-05-14T09:54:58;98634.91;;;15.89;100.00
48563;BME280;34981;49.104;11.396;2023-05-14T09:57:26;98584.53;;;16.33;100.00
48563;BME280;34981;49.104;11.396;2023-05-14T09:59:53;98491.91;;;16.01;100.00
48563;BME280;34981;49.104;11.396;2023-05-14T10:04:52;98369.66;;;15.23;100.00
48563;BME280;34981;49.104;11.396;2023-05-14T10:07:21;98410.50;;;15.44;100.00
48563;BME280;34981;49.104;11.396;2023-05-14T10:09:50;98386.19;;;15.49;100.00
48563;BME280;34981;49.104;11.396;2023-05-14T10:12:20;98424.75;;;15.80;100.00
48563;BME280;34981;49.104;11.396;2023-05-14T10:14:49;98385.81;;;15.86;100.00
48563;BME280;34981;49.104;11.396;2023-05-14T10:17:20;98343.50;;;15.85;100.00
48563;BME280;34981;49.104;11.396;2023-05-14T10:19:51;98349.66;;;15.97;100.00
48563;BME280;34981;49.104;11.396;2023-05-14T10:22:21;98259.25;;;15.75;100.00
48563;BME280;34981;49.104;11.396;2023-05-14T10:24:49;98284.81;;;15.95;100.00
48563;BME280;34981;49.104;11.396;2023-05-14T10:27:20;98190.72;;;15.63;100.00
48563;BME280;34981;49.104;11.396;2023-05-14T10:29:51;98183.06;;;15.60;100.00
48563;BME280;34981;49.104;11.396;2023-05-14T10:32:22;98170.50;;;16.09;100.00
48563;BME280;34981;49.104;11.396;2023-05-14T10:34:51;98073.00;;;16.24;100.00
48563;BME280;34981;49.104;11.396;2023-05-14T10:37:22;97976.22;;;15.81;100.00
48563;BME280;34981;49.104;11.396;2023-05-14T10:40:03;97929.09;;;15.65;100.00
48563;BME280;34981;49.104;11.396;2023-05-14T10:42:33;97907.16;;;15.45;100.00
48563;BME280;34981;49.104;11.396;2023-05-14T10:45:03;97903.53;;;15.56;100.00
48563;BME280;34981;49.104;11.396;2023-05-14T10:47:43;97919.00;;;15.82;100.00
48563;BME280;34981;49.104;11.396;2023-05-14T10:50:11;97862.41;;;15.91;100.00
48563;BME280;34981;49.104;11.396;2023-05-14T10:52:42;97856.94;;;16.18;100.00
48563;BME280;34981;49.104;11.396;2023-05-14T10:55:11;97755.72;;;16.12;100.00
48563;BME280;34981;49.104;11.396;2023-05-14T10:57:40;97695.34;;;15.90;100.00
48563;BME280;34981;49.104;11.396;2023-05-14T11:00:08;97716.06;;;16.06;100.00
48563;BME280;34981;49.104;11.396;2023-05-14T11:02:37;97697.09;;;16.11;100.00
48563;BME280;34981;49.104;11.396;2023-05-14T11:05:05;97678.50;;;15.93;100.00
48563;BME280;34981;49.104;11.396;2023-05-14T11:07:35;97677.78;;;16.03;100.00
48563;BME280;34981;49.104;11.396;2023-05-14T11:10:06;97700.72;;;16.32;100.00
48563;BME280;34981;49.104;11.396;2023-05-14T11:12:34;97642.38;;;16.29;100.00
48563;BME280;34981;49.104;11.396;2023-05-14T11:15:04;97640.19;;;16.21;100.00
48563;BME280;34981;49.104;11.396;2023-05-14T11:17:33;97539.63;;;15.86;100.00
48563;BME280;34981;49.104;11.396;2023-05-14T11:20:00;97540.88;;;16.20;100.00
48563;BME280;34981;49.104;11.396;2023-05-14T11:22:28;97562.59;;;16.30;100.00
48563;BME280;34981;49.104;11.396;2023-05-14T11:24:55;97563.44;;;16.51;100.00
48563;BME280;34981;49.104;11.396;2023-05-14T11:27:22;97488.22;;;16.21;100.00
48563;BME280;34981;49.104;11.396;2023-05-14T11:29:49;97511.06;;;16.46;100.00
48563;BME280;34981;49.104;11.396;2023-05-14T11:32:17;97440.75;;;16.59;100.00
48563;BME280;34981;49.104;11.396;2023-05-14T11:34:44;97473.91;;;17.07;100.00
48563;BME280;34981;49.104;11.396;2023-05-14T11:37:14;97402.66;;;17.25;100.00
48563;BME280;34981;49.104;11.396;2023-05-14T11:39:48;97345.56;;;17.30;100.00
48563;BME280;34981;49.104;11.396;2023-05-14T11:42:17;97378.06;;;17.56;100.00
48563;BME280;34981;49.104;11.396;2023-05-14T11:44:46;97360.34;;;17.73;100.00
48563;BME280;34981;49.104;11.396;2023-05-14T11:47:14;97289.00;;;17.37;100.00
48563;BME280;34981;49.104;11.396;2023-05-14T11:49:41;97270.53;;;17.34;100.00
48563;BME280;34981;49.104;11.396;2023-05-14T11:52:08;97256.63;;;17.41;100.00
48563;BME280;34981;49.104;11.396;2023-05-14T11:54:37;97199.13;;;17.19;100.00
48563;BME280;34981;49.104;11.396;2023-05-14T11:57:09;97200.81;;;17.09;100.00
48563;BME280;34981;49.104;11.396;2023-05-14T11:59:36;97188.28;;;17.19;100.00
48563;BME280;34981;49.104;11.396;2023-05-14T12:02:03;97125.25;;;17.17;100.00
48563;BME280;34981;49.104;11.396;2023-05-14T12:04:31;97090.53;;;17.08;100.00
48563;BME280;34981;49.104;11.396;2023-05-14T12:06:59;97082.13;;;17.05;100.00
48563;BME280;34981;49.104;11.396;2023-05-14T12:09:26;97086.38;;;16.82;100.00
48563;BME280;34981;49.104;11.396;2023-05-14T12:11:53;97123.63;;;17.16;100.00
48563;BME280;34981;49.104;11.396;2023-05-14T12:14:21;97042.41;;;17.14;100.00
48563;BME280;34981;49.104;11.396;2023-05-14T12:16:49;96984.59;;;17.08;100.00
48563;BME280;34981;49.104;11.396;2023-05-14T12:19:17;97006.19;;;17.24;100.00
48563;BME280;34981;49.104;11.396;2023-05-14T12:21:46;96939.72;;;17.11;100.00
48563;BME280;34981;49.104;11.396;2023-05-14T12:24:14;96914.41;;;17.16;100.00
48563;BME280;34981;49.104;11.396;2023-05-14T12:26:45;96927.19;;;17.15;100.00
48563;BME280;34981;49.104;11.396;2023-05-14T12:29:16;96951.59;;;17.20;100.00
48563;BME280;34981;49.104;11.396;2023-05-14T12:31:46;96933.06;;;16.98;100.00
48563;BME280;34981;49.104;11.396;2023-05-14T12:34:13;96975.66;;;17.03;100.00
48563;BME280;34981;49.104;11.396;2023-05-14T12:36:41;96988.13;;;17.09;100.00
48563;BME280;34981;49.104;11.396;2023-05-14T12:39:09;97017.53;;;17.31;100.00
48563;BME280;34981;49.104;11.396;2023-05-14T12:41:36;97012.22;;;17.44;100.00
48563;BME280;34981;49.104;11.396;2023-05-14T12:44:03;96958.84;;;17.01;100.00
48563;BME280;34981;49.104;11.396;2023-05-14T12:46:31;96958.72;;;16.82;100.00
48563;BME280;34981;49.104;11.396;2023-05-14T12:48:59;96969.50;;;16.92;100.00